sensor_id;sensor_type;location;lat;lon;timestamp;P1;durP1;ratioP1;P2;durP2;ratioP2
29848;SDS011;16728;50.832;5.590;2023-02-19T00:01:13;6.55;;;5.35;;
29848;SDS011;16728;50.832;5.590;2023-02-19T00:04:18;7.45;;;5.47;;
29848;SDS011;16728;50.832;5.590;2023-02-19T00:07:22;6.10;;;5.32;;
29848;SDS011;16728;50.832;5.590;2023-02-19T00:10:23;6.70;;;5.05;;
29848;SDS011;16728;50.832;5.590;2023-02-19T00:13:25;5.25;;;4.65;;
29848;SDS011;16728;50.832;5.590;2023-02-19T00:16:31;5.75;;;4.90;;
29848;SDS011;16728;50.832;5.590;2023-02-19T00:19:36;5.00;;;4.47;;
29848;SDS011;16728;50.832;5.590;2023-02-19T00:22:38;4.90;;;4.35;;
29848;SDS011;16728;50.832;5.590;2023-02-19T00:25:40;5.38;;;4.88;;
29848;SDS011;16728;50.832;5.590;2023-02-19T00:28:42;6.43;;;5.00;;
29848;SDS011;16728;50.832;5.590;2023-02-19T00:31:44;7.30;;;5.55;;
29848;SDS011;16728;50.832;5.590;2023-02-19T00:34:46;7.05;;;6.00;;
29848;SDS011;16728;50.832;5.590;2023-02-19T00:37:48;6.55;;;5.72;;
29848;SDS011;16728;50.832;5.590;2023-02-19T00:40:50;7.32;;;5.78;;
29848;SDS011;16728;50.832;5.590;2023-02-19T00:43:53;7.57;;;6.43;;
29848;SDS011;16728;50.832;5.590;2023-02-19T00:46:55;6.80;;;5.72;;
29848;SDS011;16728;50.832;5.590;2023-02-19T00:49:56;6.40;;;5.55;;
29848;SDS011;16728;50.832;5.590;2023-02-19T00:52:58;6.20;;;5.60;;
29848;SDS011;16728;50.832;5.590;2023-02-19T00:56:00;6.05;;;5.28;;
29848;SDS011;16728;50.832;5.590;2023-02-19T00:59:02;5.90;;;5.03;;
29848;SDS011;16728;50.832;5.590;2023-02-19T01:02:04;5.82;;;5.03;;
29848;SDS011;16728;50.832;5.590;2023-02-19T01:05:06;4.82;;;4.35;;
29848;SDS011;16728;50.832;5.590;2023-02-19T01:08:08;5.45;;;4.43;;
29848;SDS011;16728;50.832;5.590;2023-02-19T01:11:10;5.88;;;3.97;;
29848;SDS011;16728;50.832;5.590;2023-02-19T01:14:13;4.53;;;4.13;;
29848;SDS011;16728;50.832;5.590;2023-02-19T01:17:15;4.82;;;4.00;;
29848;SDS011;16728;50.832;5.590;2023-02-19T01:20:17;5.68;;;5.07;;
29848;SDS011;16728;50.832;5.590;2023-02-19T01:23:19;6.43;;;5.63;;
29848;SDS011;16728;50.832;5.590;2023-02-19T01:26:22;7.45;;;5.80;;
29848;SDS011;16728;50.832;5.590;2023-02-19T01:29:26;10.35;;;6.20;;
29848;SDS011;16728;50.832;5.590;2023-02-19T01:32:27;7.10;;;6.40;;
29848;SDS011;16728;50.832;5.590;2023-02-19T01:35:29;8.40;;;7.03;;
29848;SDS011;16728;50.832;5.590;2023-02-19T01:38:31;9.70;;;6.88;;
29848;SDS011;16728;50.832;5.590;2023-02-19T01:41:35;8.30;;;7.18;;
29848;SDS011;16728;50.832;5.590;2023-02-19T01:47:49;9.35;;;7.05;;
29848;SDS011;16728;50.832;5.590;2023-02-19T01:51:06;10.05;;;7.30;;
29848;SDS011;16728;50.832;5.590;2023-02-19T01:54:14;12.73;;;7.93;;
29848;SDS011;16728;50.832;5.590;2023-02-19T01:57:19;8.93;;;7.10;;
29848;SDS011;16728;50.832;5.590;2023-02-19T02:00:24;11.55;;;7.43;;
29848;SDS011;16728;50.832;5.590;2023-02-19T02:03:26;11.90;;;6.93;;
29848;SDS011;16728;50.832;5.590;2023-02-19T02:06:30;10.23;;;7.07;;
29848;SDS011;16728;50.832;5.590;2023-02-19T02:09:38;11.18;;;7.20;;
29848;SDS011;16728;50.832;5.590;2023-02-19T02:12:59;9.00;;;7.10;;
29848;SDS011;16728;50.832;5.590;2023-02-19T02:19:20;11.35;;;7.38;;
29848;SDS011;16728;50.832;5.590;2023-02-19T02:29:23;8.65;;;6.07;;
29848;SDS011;16728;50.832;5.590;2023-02-19T02:36:19;14.68;;;6.80;;
29848;SDS011;16728;50.832;5.590;2023-02-19T02:39:27;15.98;;;7.22;;
29848;SDS011;16728;50.832;5.590;2023-02-19T02:42:33;15.10;;;7.43;;
29848;SDS011;16728;50.832;5.590;2023-02-19T02:45:35;12.50;;;7.20;;
29848;SDS011;16728;50.832;5.590;2023-02-19T02:48:40;13.90;;;6.70;;
29848;SDS011;16728;50.832;5.590;2023-02-19T02:51:49;12.85;;;7.05;;
29848;SDS011;16728;50.832;5.590;2023-02-19T02:54:52;11.32;;;7.05;;
29848;SDS011;16728;50.832;5.590;2023-02-19T02:58:04;11.90;;;7.38;;
29848;SDS011;16728;50.832;5.590;2023-02-19T03:01:07;11.48;;;6.80;;
29848;SDS011;16728;50.832;5.590;2023-02-19T03:05:04;11.75;;;7.43;;
29848;SDS011;16728;50.832;5.590;2023-02-19T03:08:36;13.30;;;6.97;;
29848;SDS011;16728;50.832;5.590;2023-02-19T03:11:42;11.15;;;6.65;;
29848;SDS011;16728;50.832;5.590;2023-02-19T03:15:07;10.30;;;6.32;;
29848;SDS011;16728;50.832;5.590;2023-02-19T03:18:31;12.10;;;6.32;;
29848;SDS011;16728;50.832;5.590;2023-02-19T03:21:59;14.70;;;6.78;;
29848;SDS011;16728;50.832;5.590;2023-02-19T03:25:24;12.88;;;6.13;;
29848;SDS011;16728;50.832;5.590;2023-02-19T03:28:49;12.57;;;6.85;;
29848;SDS011;16728;50.832;5.590;2023-02-19T03:32:16;10.68;;;5.80;;
29848;SDS011;16728;50.832;5.590;2023-02-19T03:35:26;12.20;;;5.70;;
29848;SDS011;16728;50.832;5.590;2023-02-19T03:38:48;11.18;;;6.07;;
29848;SDS011;16728;50.832;5.590;2023-02-19T03:42:00;13.05;;;6.22;;
29848;SDS011;16728;50.832;5.590;2023-02-19T03:45:23;10.38;;;5.63;;
29848;SDS011;16728;50.832;5.590;2023-02-19T03:48:54;9.32;;;5.38;;
29848;SDS011;16728;50.832;5.590;2023-02-19T03:52:03;11.25;;;5.10;;
29848;SDS011;16728;50.832;5.590;2023-02-19T03:55:25;10.55;;;5.22;;
29848;SDS011;16728;50.832;5.590;2023-02-19T03:58:34;13.57;;;5.38;;
29848;SDS011;16728;50.832;5.590;2023-02-19T04:01:43;9.05;;;4.70;;
29848;SDS011;16728;50.832;5.590;2023-02-19T04:04:50;16.00;;;5.38;;
29848;SDS011;16728;50.832;5.590;2023-02-19T04:07:57;10.55;;;4.93;;
29848;SDS011;16728;50.832;5.590;2023-02-19T04:11:04;12.98;;;4.70;;
29848;SDS011;16728;50.832;5.590;2023-02-19T04:14:15;10.32;;;4.43;;
29848;SDS011;16728;50.832;5.590;2023-02-19T04:17:22;14.88;;;4.75;;
29848;SDS011;16728;50.832;5.590;2023-02-19T04:20:39;10.30;;;4.28;;
29848;SDS011;16728;50.832;5.590;2023-02-19T04:23:45;10.50;;;3.92;;
29848;SDS011;16728;50.832;5.590;2023-02-19T04:26:47;11.85;;;4.10;;
29848;SDS011;16728;50.832;5.590;2023-02-19T04:29:49;11.63;;;4.25;;
29848;SDS011;16728;50.832;5.590;2023-02-19T04:32:51;11.20;;;3.63;;
29848;SDS011;16728;50.832;5.590;2023-02-19T04:35:53;14.43;;;4.40;;
29848;SDS011;16728;50.832;5.590;2023-02-19T04:38:55;12.07;;;3.88;;
29848;SDS011;16728;50.832;5.590;2023-02-19T04:41:57;13.32;;;3.63;;
29848;SDS011;16728;50.832;5.590;2023-02-19T04:44:58;12.65;;;3.50;;
29848;SDS011;16728;50.832;5.590;2023-02-19T04:48:00;12.73;;;3.67;;
29848;SDS011;16728;50.832;5.590;2023-02-19T04:51:05;10.13;;;3.30;;
29848;SDS011;16728;50.832;5.590;2023-02-19T04:54:08;8.80;;;2.80;;
29848;SDS011;16728;50.832;5.590;2023-02-19T04:57:10;10.02;;;3.17;;
29848;SDS011;16728;50.832;5.590;2023-02-19T05:00:12;11.75;;;3.50;;
29848;SDS011;16728;50.832;5.590;2023-02-19T05:03:14;16.90;;;3.60;;
29848;SDS011;16728;50.832;5.590;2023-02-19T05:06:16;11.82;;;3.40;;
29848;SDS011;16728;50.832;5.590;2023-02-19T05:09:18;9.32;;;2.85;;
29848;SDS011;16728;50.832;5.590;2023-02-19T05:12:20;11.23;;;2.83;;
29848;SDS011;16728;50.832;5.590;2023-02-19T05:15:21;16.60;;;3.65;;
29848;SDS011;16728;50.832;5.590;2023-02-19T05:18:24;10.57;;;2.95;;
29848;SDS011;16728;50.832;5.590;2023-02-19T05:21:26;9.90;;;3.20;;
29848;SDS011;16728;50.832;5.590;2023-02-19T05:24:28;9.38;;;2.95;;
29848;SDS011;16728;50.832;5.590;2023-02-19T05:27:31;10.02;;;3.40;;
29848;SDS011;16728;50.832;5.590;2023-02-19T05:30:34;13.52;;;3.58;;
29848;SDS011;16728;50.832;5.590;2023-02-19T05:33:36;12.10;;;3.28;;
29848;SDS011;16728;50.832;5.590;2023-02-19T05:36:38;11.00;;;3.13;;
29848;SDS011;16728;50.832;5.590;2023-02-19T05:39:40;8.35;;;3.22;;
29848;SDS011;16728;50.832;5.590;2023-02-19T05:42:42;13.43;;;3.20;;
29848;SDS011;16728;50.832;5.590;2023-02-19T05:45:43;12.93;;;3.50;;
29848;SDS011;16728;50.832;5.590;2023-02-19T05:48:46;12.40;;;3.47;;
29848;SDS011;16728;50.832;5.590;2023-02-19T05:51:49;12.52;;;3.10;;
29848;SDS011;16728;50.832;5.590;2023-02-19T05:54:51;15.55;;;3.80;;
29848;SDS011;16728;50.832;5.590;2023-02-19T05:57:53;16.67;;;3.85;;
29848;SDS011;16728;50.832;5.590;2023-02-19T06:00:55;16.65;;;4.07;;
29848;SDS011;16728;50.832;5.590;2023-02-19T06:03:57;15.27;;;4.05;;
29848;SDS011;16728;50.832;5.590;2023-02-19T06:06:59;18.02;;;3.67;;
29848;SDS011;16728;50.832;5.590;2023-02-19T06:10:01;15.05;;;2.88;;
29848;SDS011;16728;50.832;5.590;2023-02-19T06:13:03;15.85;;;3.10;;
29848;SDS011;16728;50.832;5.590;2023-02-19T06:16:05;17.33;;;3.10;;
29848;SDS011;16728;50.832;5.590;2023-02-19T06:19:08;12.02;;;3.33;;
29848;SDS011;16728;50.832;5.590;2023-02-19T06:22:10;10.17;;;2.87;;
29848;SDS011;16728;50.832;5.590;2023-02-19T06:25:15;11.25;;;2.70;;
29848;SDS011;16728;50.832;5.590;2023-02-19T06:28:17;11.18;;;2.75;;
29848;SDS011;16728;50.832;5.590;2023-02-19T06:31:20;14.82;;;3.45;;
29848;SDS011;16728;50.832;5.590;2023-02-19T06:34:23;11.73;;;2.88;;
29848;SDS011;16728;50.832;5.590;2023-02-19T06:37:25;10.07;;;2.58;;
29848;SDS011;16728;50.832;5.590;2023-02-19T06:40:27;15.45;;;3.10;;
29848;SDS011;16728;50.832;5.590;2023-02-19T06:43:29;12.20;;;2.88;;
29848;SDS011;16728;50.832;5.590;2023-02-19T06:49:34;10.25;;;2.10;;
29848;SDS011;16728;50.832;5.590;2023-02-19T06:52:36;16.58;;;3.15;;
29848;SDS011;16728;50.832;5.590;2023-02-19T06:55:37;16.52;;;3.47;;
29848;SDS011;16728;50.832;5.590;2023-02-19T06:58:40;12.07;;;3.35;;
29848;SDS011;16728;50.832;5.590;2023-02-19T07:01:42;11.73;;;2.97;;
29848;SDS011;16728;50.832;5.590;2023-02-19T07:04:45;15.35;;;3.42;;
29848;SDS011;16728;50.832;5.590;2023-02-19T07:07:47;15.25;;;3.42;;
29848;SDS011;16728;50.832;5.590;2023-02-19T07:10:55;18.80;;;2.90;;
29848;SDS011;16728;50.832;5.590;2023-02-19T07:13:59;14.02;;;3.60;;
29848;SDS011;16728;50.832;5.590;2023-02-19T07:17:03;12.57;;;3.25;;
29848;SDS011;16728;50.832;5.590;2023-02-19T07:20:05;15.13;;;3.58;;
29848;SDS011;16728;50.832;5.590;2023-02-19T07:23:06;16.15;;;3.17;;
29848;SDS011;16728;50.832;5.590;2023-02-19T07:26:09;13.20;;;2.92;;
29848;SDS011;16728;50.832;5.590;2023-02-19T07:29:12;17.30;;;3.75;;
29848;SDS011;16728;50.832;5.590;2023-02-19T07:32:14;14.98;;;3.67;;
29848;SDS011;16728;50.832;5.590;2023-02-19T07:35:16;11.85;;;3.38;;
29848;SDS011;16728;50.832;5.590;2023-02-19T07:38:18;15.00;;;3.80;;
29848;SDS011;16728;50.832;5.590;2023-02-19T07:41:22;16.02;;;3.70;;
29848;SDS011;16728;50.832;5.590;2023-02-19T07:44:24;13.73;;;3.03;;
29848;SDS011;16728;50.832;5.590;2023-02-19T07:47:27;9.23;;;2.55;;
29848;SDS011;16728;50.832;5.590;2023-02-19T07:50:29;10.38;;;2.75;;
29848;SDS011;16728;50.832;5.590;2023-02-19T07:53:32;18.05;;;3.47;;
29848;SDS011;16728;50.832;5.590;2023-02-19T07:56:35;17.45;;;3.25;;
29848;SDS011;16728;50.832;5.590;2023-02-19T07:59:37;12.93;;;3.15;;
29848;SDS011;16728;50.832;5.590;2023-02-19T08:02:39;13.23;;;2.92;;
29848;SDS011;16728;50.832;5.590;2023-02-19T08:05:59;10.10;;;2.92;;
29848;SDS011;16728;50.832;5.590;2023-02-19T08:09:02;14.43;;;3.35;;
29848;SDS011;16728;50.832;5.590;2023-02-19T08:12:05;12.38;;;2.95;;
29848;SDS011;16728;50.832;5.590;2023-02-19T08:15:25;10.55;;;2.80;;
29848;SDS011;16728;50.832;5.590;2023-02-19T08:18:28;15.57;;;3.65;;
29848;SDS011;16728;50.832;5.590;2023-02-19T08:21:32;14.02;;;3.08;;
29848;SDS011;16728;50.832;5.590;2023-02-19T08:24:34;10.43;;;2.70;;
29848;SDS011;16728;50.832;5.590;2023-02-19T08:27:38;16.48;;;2.92;;
29848;SDS011;16728;50.832;5.590;2023-02-19T08:30:40;12.50;;;2.88;;
29848;SDS011;16728;50.832;5.590;2023-02-19T08:33:46;10.65;;;3.00;;
29848;SDS011;16728;50.832;5.590;2023-02-19T08:36:48;14.25;;;3.30;;
29848;SDS011;16728;50.832;5.590;2023-02-19T08:39:50;13.93;;;3.13;;
29848;SDS011;16728;50.832;5.590;2023-02-19T08:42:52;15.85;;;3.20;;
29848;SDS011;16728;50.832;5.590;2023-02-19T08:45:54;10.20;;;3.28;;
29848;SDS011;16728;50.832;5.590;2023-02-19T08:48:56;13.10;;;3.55;;
29848;SDS011;16728;50.832;5.590;2023-02-19T08:51:57;15.05;;;3.50;;
29848;SDS011;16728;50.832;5.590;2023-02-19T08:58:20;12.43;;;3.40;;
29848;SDS011;16728;50.832;5.590;2023-02-19T09:01:22;13.33;;;3.03;;
29848;SDS011;16728;50.832;5.590;2023-02-19T09:04:24;15.27;;;3.97;;
29848;SDS011;16728;50.832;5.590;2023-02-19T09:07:27;12.45;;;3.33;;
29848;SDS011;16728;50.832;5.590;2023-02-19T09:10:28;13.27;;;3.20;;
29848;SDS011;16728;50.832;5.590;2023-02-19T09:13:30;11.65;;;3.13;;
29848;SDS011;16728;50.832;5.590;2023-02-19T09:16:33;10.95;;;3.55;;
29848;SDS011;16728;50.832;5.590;2023-02-19T09:19:35;16.83;;;4.22;;
29848;SDS011;16728;50.832;5.590;2023-02-19T09:22:37;15.38;;;3.95;;
29848;SDS011;16728;50.832;5.590;2023-02-19T09:25:39;13.70;;;3.83;;
29848;SDS011;16728;50.832;5.590;2023-02-19T09:28:41;10.05;;;3.60;;
29848;SDS011;16728;50.832;5.590;2023-02-19T09:31:43;12.50;;;4.10;;
29848;SDS011;16728;50.832;5.590;2023-02-19T09:34:45;14.10;;;4.57;;
29848;SDS011;16728;50.832;5.590;2023-02-19T09:37:47;13.35;;;3.67;;
29848;SDS011;16728;50.832;5.590;2023-02-19T09:40:49;15.43;;;4.50;;
29848;SDS011;16728;50.832;5.590;2023-02-19T09:43:51;12.82;;;4.40;;
29848;SDS011;16728;50.832;5.590;2023-02-19T09:46:53;13.88;;;5.40;;
29848;SDS011;16728;50.832;5.590;2023-02-19T09:50:05;14.90;;;4.82;;
29848;SDS011;16728;50.832;5.590;2023-02-19T09:53:12;13.80;;;5.07;;
29848;SDS011;16728;50.832;5.590;2023-02-19T09:56:20;12.43;;;5.53;;
29848;SDS011;16728;50.832;5.590;2023-02-19T09:59:25;16.27;;;4.93;;
29848;SDS011;16728;50.832;5.590;2023-02-19T10:02:30;11.80;;;5.70;;
29848;SDS011;16728;50.832;5.590;2023-02-19T10:05:33;17.90;;;5.88;;
29848;SDS011;16728;50.832;5.590;2023-02-19T10:08:35;13.77;;;5.80;;
29848;SDS011;16728;50.832;5.590;2023-02-19T10:11:38;15.55;;;6.13;;
29848;SDS011;16728;50.832;5.590;2023-02-19T10:14:44;14.88;;;5.43;;
29848;SDS011;16728;50.832;5.590;2023-02-19T10:17:48;13.88;;;5.18;;
29848;SDS011;16728;50.832;5.590;2023-02-19T10:20:50;9.95;;;4.55;;
29848;SDS011;16728;50.832;5.590;2023-02-19T10:23:54;18.48;;;5.15;;
29848;SDS011;16728;50.832;5.590;2023-02-19T10:27:00;11.75;;;4.40;;
29848;SDS011;16728;50.832;5.590;2023-02-19T10:30:02;14.60;;;5.32;;
29848;SDS011;16728;50.832;5.590;2023-02-19T10:33:09;13.27;;;4.57;;
29848;SDS011;16728;50.832;5.590;2023-02-19T10:36:38;15.20;;;4.88;;
29848;SDS011;16728;50.832;5.590;2023-02-19T10:39:42;11.70;;;5.10;;
29848;SDS011;16728;50.832;5.590;2023-02-19T10:42:51;12.88;;;4.57;;
29848;SDS011;16728;50.832;5.590;2023-02-19T10:45:57;17.85;;;4.63;;
29848;SDS011;16728;50.832;5.590;2023-02-19T10:49:04;15.70;;;5.65;;
29848;SDS011;16728;50.832;5.590;2023-02-19T10:55:29;14.40;;;5.82;;
29848;SDS011;16728;50.832;5.590;2023-02-19T10:58:34;13.63;;;5.30;;
29848;SDS011;16728;50.832;5.590;2023-02-19T11:01:38;13.20;;;5.68;;
29848;SDS011;16728;50.832;5.590;2023-02-19T11:08:20;11.52;;;6.13;;
29848;SDS011;16728;50.832;5.590;2023-02-19T11:11:30;16.42;;;7.05;;
29848;SDS011;16728;50.832;5.590;2023-02-19T11:17:42;12.23;;;5.53;;
29848;SDS011;16728;50.832;5.590;2023-02-19T11:20:48;13.20;;;6.78;;
29848;SDS011;16728;50.832;5.590;2023-02-19T11:23:54;12.23;;;5.95;;
29848;SDS011;16728;50.832;5.590;2023-02-19T11:26:56;13.15;;;6.25;;
29848;SDS011;16728;50.832;5.590;2023-02-19T11:33:30;12.63;;;5.93;;
29848;SDS011;16728;50.832;5.590;2023-02-19T11:36:33;12.88;;;6.22;;
29848;SDS011;16728;50.832;5.590;2023-02-19T11:39:36;13.45;;;6.68;;
29848;SDS011;16728;50.832;5.590;2023-02-19T11:42:44;12.65;;;6.40;;
29848;SDS011;16728;50.832;5.590;2023-02-19T11:59:18;11.48;;;6.35;;
29848;SDS011;16728;50.832;5.590;2023-02-19T12:05:55;10.20;;;7.13;;
29848;SDS011;16728;50.832;5.590;2023-02-19T12:15:55;13.40;;;7.10;;
29848;SDS011;16728;50.832;5.590;2023-02-19T12:22:54;17.45;;;7.07;;
29848;SDS011;16728;50.832;5.590;2023-02-19T12:26:29;12.55;;;6.57;;
29848;SDS011;16728;50.832;5.590;2023-02-19T12:29:37;15.50;;;7.38;;
29848;SDS011;16728;50.832;5.590;2023-02-19T12:32:54;17.25;;;7.93;;
29848;SDS011;16728;50.832;5.590;2023-02-19T12:46:37;12.43;;;6.32;;
29848;SDS011;16728;50.832;5.590;2023-02-19T12:49:44;11.65;;;6.35;;
29848;SDS011;16728;50.832;5.590;2023-02-19T12:52:56;11.90;;;6.05;;
29848;SDS011;16728;50.832;5.590;2023-02-19T12:56:03;15.80;;;6.13;;
29848;SDS011;16728;50.832;5.590;2023-02-19T13:02:32;10.30;;;6.30;;
29848;SDS011;16728;50.832;5.590;2023-02-19T13:09:35;15.68;;;7.55;;
29848;SDS011;16728;50.832;5.590;2023-02-19T13:12:49;12.70;;;7.25;;
29848;SDS011;16728;50.832;5.590;2023-02-19T13:18:58;14.77;;;7.07;;
29848;SDS011;16728;50.832;5.590;2023-02-19T13:22:03;16.10;;;7.20;;
29848;SDS011;16728;50.832;5.590;2023-02-19T13:25:45;10.93;;;6.88;;
29848;SDS011;16728;50.832;5.590;2023-02-19T13:38:53;14.82;;;6.95;;
29848;SDS011;16728;50.832;5.590;2023-02-19T13:41:59;10.00;;;5.47;;
29848;SDS011;16728;50.832;5.590;2023-02-19T13:45:02;13.35;;;5.85;;
29848;SDS011;16728;50.832;5.590;2023-02-19T13:54:32;10.50;;;6.50;;
29848;SDS011;16728;50.832;5.590;2023-02-19T13:57:40;13.55;;;6.72;;
29848;SDS011;16728;50.832;5.590;2023-02-19T14:00:46;11.52;;;7.65;;
29848;SDS011;16728;50.832;5.590;2023-02-19T14:03:54;14.95;;;5.70;;
29848;SDS011;16728;50.832;5.590;2023-02-19T14:10:11;12.48;;;5.47;;
29848;SDS011;16728;50.832;5.590;2023-02-19T14:20:38;10.43;;;4.88;;
29848;SDS011;16728;50.832;5.590;2023-02-19T14:23:35;10.77;;;4.88;;
29848;SDS011;16728;50.832;5.590;2023-02-19T14:26:38;7.22;;;4.70;;
29848;SDS011;16728;50.832;5.590;2023-02-19T14:29:40;8.67;;;4.67;;
29848;SDS011;16728;50.832;5.590;2023-02-19T14:32:42;7.93;;;4.50;;
29848;SDS011;16728;50.832;5.590;2023-02-19T14:35:56;6.78;;;4.85;;
29848;SDS011;16728;50.832;5.590;2023-02-19T14:39:13;8.77;;;4.47;;
29848;SDS011;16728;50.832;5.590;2023-02-19T14:42:23;9.45;;;5.20;;
29848;SDS011;16728;50.832;5.590;2023-02-19T21:22:08;10.80;;;7.85;;
29848;SDS011;16728;50.832;5.590;2023-02-19T21:25:10;19.10;;;8.85;;
29848;SDS011;16728;50.832;5.590;2023-02-19T21:28:12;15.35;;;7.97;;
29848;SDS011;16728;50.832;5.590;2023-02-19T21:31:14;10.52;;;7.25;;
29848;SDS011;16728;50.832;5.590;2023-02-19T21:34:18;10.27;;;7.35;;
29848;SDS011;16728;50.832;5.590;2023-02-19T21:37:22;12.25;;;8.68;;
29848;SDS011;16728;50.832;5.590;2023-02-19T21:40:24;20.00;;;11.55;;
29848;SDS011;16728;50.832;5.590;2023-02-19T21:43:28;23.52;;;13.43;;
29848;SDS011;16728;50.832;5.590;2023-02-19T21:46:31;19.33;;;11.45;;
29848;SDS011;16728;50.832;5.590;2023-02-19T21:52:36;11.80;;;8.18;;
29848;SDS011;16728;50.832;5.590;2023-02-19T21:55:38;14.35;;;8.13;;
29848;SDS011;16728;50.832;5.590;2023-02-19T21:58:50;13.70;;;10.35;;
29848;SDS011;16728;50.832;5.590;2023-02-19T22:01:52;12.35;;;10.05;;
29848;SDS011;16728;50.832;5.590;2023-02-19T22:04:57;12.77;;;8.57;;
29848;SDS011;16728;50.832;5.590;2023-02-19T22:07:59;10.25;;;7.05;;
29848;SDS011;16728;50.832;5.590;2023-02-19T22:11:04;10.48;;;6.82;;
29848;SDS011;16728;50.832;5.590;2023-02-19T22:14:06;11.02;;;6.50;;
29848;SDS011;16728;50.832;5.590;2023-02-19T22:17:07;10.35;;;6.80;;
29848;SDS011;16728;50.832;5.590;2023-02-19T22:20:10;10.13;;;7.45;;
29848;SDS011;16728;50.832;5.590;2023-02-19T22:23:12;12.93;;;8.15;;
29848;SDS011;16728;50.832;5.590;2023-02-19T22:26:18;16.98;;;8.70;;
29848;SDS011;16728;50.832;5.590;2023-02-19T22:29:33;12.73;;;7.57;;
29848;SDS011;16728;50.832;5.590;2023-02-19T22:32:35;10.73;;;7.30;;
29848;SDS011;16728;50.832;5.590;2023-02-19T22:35:37;11.27;;;7.45;;
29848;SDS011;16728;50.832;5.590;2023-02-19T22:38:39;9.88;;;6.78;;
29848;SDS011;16728;50.832;5.590;2023-02-19T22:41:41;12.38;;;8.13;;
29848;SDS011;16728;50.832;5.590;2023-02-19T22:44:44;12.00;;;7.97;;
29848;SDS011;16728;50.832;5.590;2023-02-19T22:50:49;14.90;;;9.80;;
29848;SDS011;16728;50.832;5.590;2023-02-19T22:53:52;15.07;;;9.60;;
29848;SDS011;16728;50.832;5.590;2023-02-19T22:56:55;14.05;;;10.15;;
29848;SDS011;16728;50.832;5.590;2023-02-19T22:59:57;14.70;;;9.60;;
29848;SDS011;16728;50.832;5.590;2023-02-19T23:02:59;14.52;;;10.35;;
29848;SDS011;16728;50.832;5.590;2023-02-19T23:06:01;14.73;;;10.75;;
29848;SDS011;16728;50.832;5.590;2023-02-19T23:09:05;15.85;;;10.75;;
29848;SDS011;16728;50.832;5.590;2023-02-19T23:12:11;16.30;;;12.07;;
29848;SDS011;16728;50.832;5.590;2023-02-19T23:15:13;16.73;;;11.80;;
29848;SDS011;16728;50.832;5.590;2023-02-19T23:18:14;18.50;;;12.63;;
29848;SDS011;16728;50.832;5.590;2023-02-19T23:21:17;23.00;;;14.63;;
29848;SDS011;16728;50.832;5.590;2023-02-19T23:24:19;23.83;;;14.57;;
29848;SDS011;16728;50.832;5.590;2023-02-19T23:27:21;20.17;;;14.00;;
29848;SDS011;16728;50.832;5.590;2023-02-19T23:30:24;21.48;;;14.38;;
29848;SDS011;16728;50.832;5.590;2023-02-19T23:33:26;22.83;;;15.15;;
29848;SDS011;16728;50.832;5.590;2023-02-19T23:36:28;20.33;;;13.55;;
29848;SDS011;16728;50.832;5.590;2023-02-19T23:39:30;23.90;;;14.05;;
29848;SDS011;16728;50.832;5.590;2023-02-19T23:42:32;19.55;;;14.23;;
29848;SDS011;16728;50.832;5.590;2023-02-19T23:45:34;20.33;;;14.77;;
29848;SDS011;16728;50.832;5.590;2023-02-19T23:48:36;20.05;;;13.88;;
29848;SDS011;16728;50.832;5.590;2023-02-19T23:51:38;23.08;;;14.50;;
29848;SDS011;16728;50.832;5.590;2023-02-19T23:54:40;24.73;;;15.40;;
29848;SDS011;16728;50.832;5.590;2023-02-19T23:57:42;19.63;;;14.27;;
